createdAt,value
2022-09-12T00:01:07.031Z,74.50
2022-09-12T00:03:35.264Z,74.71
2022-09-12T00:06:08.143Z,75.12
2022-09-12T00:08:36.191Z,75.55
2022-09-12T00:11:07.491Z,75.68
2022-09-12T00:13:40.862Z,75.93
2022-09-12T00:16:15.003Z,76.24
2022-09-12T00:18:44.256Z,76.36
2022-09-12T00:21:12.332Z,76.27
2022-09-12T00:23:40.380Z,76.47
2022-09-12T00:26:09.086Z,76.48
2022-09-12T00:28:39.011Z,76.71
2022-09-12T00:31:09.263Z,76.69
2022-09-12T00:33:38.812Z,77.01
2022-09-12T00:36:09.067Z,76.80
2022-09-12T00:38:38.789Z,76.52
2022-09-12T00:41:07.295Z,76.13
2022-09-12T00:43:38.041Z,75.82
2022-09-12T00:46:13.170Z,76.26
2022-09-12T00:48:45.281Z,76.79
2022-09-12T00:51:14.203Z,76.96
2022-09-12T00:53:44.864Z,77.05
2022-09-12T00:56:15.398Z,77.00
2022-09-12T00:58:48.935Z,77.19
2022-09-12T01:01:17.103Z,77.52
2022-09-12T01:03:46.696Z,77.53
2022-09-12T01:06:18.906Z,76.97
2022-09-12T01:08:49.686Z,76.70
2022-09-12T01:11:19.505Z,76.38
2022-09-12T01:13:48.022Z,77.21
2022-09-12T01:16:16.230Z,77.81
2022-09-12T01:19:02.833Z,78.16
2022-09-12T01:21:40.113Z,78.55
2022-09-12T01:24:39.778Z,77.93
2022-09-12T01:27:42.206Z,77.33
2022-09-12T01:30:45.350Z,76.23
2022-09-12T01:33:41.763Z,75.77
2022-09-12T01:36:39.053Z,75.29
2022-09-12T01:39:15.204Z,75.29
2022-09-12T01:41:53.932Z,75.53
2022-09-12T01:44:34.788Z,75.72
2022-09-12T01:47:10.309Z,75.32
2022-09-12T01:49:47.392Z,75.67
2022-09-12T01:52:21.842Z,76.26
2022-09-12T01:54:55.524Z,76.79
2022-09-12T01:57:29.202Z,77.12
2022-09-12T02:00:01.798Z,77.18
2022-09-12T02:02:36.680Z,77.05
2022-09-12T02:05:09.423Z,77.10
2022-09-12T02:07:41.595Z,77.56
2022-09-12T02:10:14.614Z,78.02
2022-09-12T02:12:47.885Z,77.78
2022-09-12T02:15:20.981Z,77.72
2022-09-12T02:17:53.238Z,77.43
2022-09-12T02:20:44.361Z,77.33
2022-09-12T02:23:17.464Z,77.92
2022-09-12T02:25:49.006Z,77.94
2022-09-12T02:28:22.916Z,78.12
2022-09-12T02:30:58.028Z,78.71
2022-09-12T02:33:32.347Z,79.24
2022-09-12T02:36:09.428Z,79.17
2022-09-12T02:38:44.434Z,78.66
2022-09-12T02:41:15.456Z,79.28
2022-09-12T02:43:43.545Z,79.84
2022-09-12T02:46:16.644Z,80.42
2022-09-12T02:48:46.141Z,80.96
2022-09-12T02:51:14.850Z,80.88
2022-09-12T02:53:43.454Z,80.88
2022-09-12T02:56:18.482Z,80.95
2022-09-12T02:58:47.560Z,81.15
2022-09-12T03:01:28.844Z,81.47
2022-09-12T03:04:15.738Z,82.06
2022-09-12T03:06:59.197Z,82.03
2022-09-12T03:09:38.981Z,81.63
2022-09-12T03:12:20.365Z,82.17
2022-09-12T03:15:05.786Z,81.97
2022-09-12T03:17:44.541Z,81.87
2022-09-12T03:20:18.028Z,81.95
2022-09-12T03:22:54.069Z,81.50
2022-09-12T03:25:26.165Z,81.01
2022-09-12T03:27:58.556Z,81.38
2022-09-12T03:30:27.200Z,81.24
2022-09-12T03:32:56.287Z,80.89
2022-09-12T03:35:26.610Z,80.42
2022-09-12T03:37:54.708Z,80.82
2022-09-12T03:40:22.955Z,80.72
2022-09-12T03:42:50.969Z,80.72
2022-09-12T03:45:19.171Z,81.30
2022-09-12T03:47:47.207Z,81.10
2022-09-12T03:50:15.399Z,81.19
2022-09-12T03:52:44.832Z,81.64
2022-09-12T03:55:13.067Z,82.05
2022-09-12T03:57:41.191Z,81.99
2022-09-12T04:00:10.329Z,82.70
2022-09-12T04:02:41.287Z,82.90
2022-09-12T04:05:09.908Z,83.57
2022-09-12T04:07:38.068Z,83.81
2022-09-12T04:10:09.678Z,83.65
2022-09-12T04:12:39.512Z,84.35
2022-09-12T04:15:08.867Z,83.38
2022-09-12T04:17:36.867Z,82.95
2022-09-12T04:20:05.399Z,81.18
2022-09-12T04:22:33.770Z,80.46
2022-09-12T04:25:02.117Z,79.86
2022-09-12T04:27:31.735Z,79.45
2022-09-12T04:30:01.233Z,78.86
2022-09-12T04:32:30.705Z,77.79
2022-09-12T04:34:58.731Z,77.66
2022-09-12T04:37:26.740Z,77.19
2022-09-12T04:39:57.925Z,77.58
2022-09-12T04:42:26.220Z,77.29
2022-09-12T04:44:55.658Z,77.88
2022-09-12T04:47:24.030Z,78.38
2022-09-12T04:49:52.474Z,79.00
2022-09-12T04:52:20.738Z,80.12
2022-09-12T04:54:48.859Z,80.62
2022-09-12T04:57:16.864Z,80.59
2022-09-12T04:59:44.937Z,80.26
2022-09-12T05:02:14.386Z,80.81
2022-09-12T05:04:42.432Z,81.06
2022-09-12T05:07:10.422Z,81.77
2022-09-12T05:09:38.470Z,81.43
2022-09-12T05:12:07.383Z,81.53
2022-09-12T05:14:35.801Z,80.70
2022-09-12T05:17:06.055Z,80.52
2022-09-12T05:19:35.547Z,80.08
2022-09-12T05:22:05.030Z,80.14
2022-09-12T05:24:33.381Z,78.99
2022-09-12T05:27:03.429Z,78.75
2022-09-12T05:29:31.532Z,76.71
2022-09-12T05:31:59.561Z,76.00
2022-09-12T05:34:27.926Z,74.99
2022-09-12T05:36:57.289Z,74.47
2022-09-12T05:39:25.664Z,73.92
2022-09-12T05:41:54.314Z,73.32
2022-09-12T05:44:22.384Z,72.98
2022-09-12T05:46:51.406Z,72.33
2022-09-12T05:49:19.655Z,71.76
2022-09-12T05:51:47.666Z,71.71
2022-09-12T05:54:21.293Z,71.78
2022-09-12T05:56:49.506Z,71.75
2022-09-12T05:59:19.596Z,71.61
2022-09-12T06:01:48.547Z,71.22
2022-09-12T06:04:17.380Z,71.29
2022-09-12T06:06:47.108Z,71.18
2022-09-12T06:09:17.839Z,70.99
2022-09-12T06:11:46.780Z,70.89
2022-09-12T06:14:16.555Z,70.64
2022-09-12T06:16:45.126Z,70.84
2022-09-12T06:19:16.598Z,70.38
2022-09-12T06:21:44.839Z,69.75
2022-09-12T06:24:16.234Z,69.47
2022-09-12T06:26:47.429Z,69.02
2022-09-12T06:29:16.507Z,69.30
2022-09-12T06:31:45.235Z,69.18
2022-09-12T06:34:15.209Z,68.48
2022-09-12T06:36:45.249Z,67.64
2022-09-12T06:39:15.072Z,67.11
2022-09-12T06:41:44.423Z,66.80
2022-09-12T06:44:16.834Z,65.53
2022-09-12T06:46:45.357Z,65.23
2022-09-12T06:49:14.510Z,64.86
2022-09-12T06:51:43.157Z,64.34
2022-09-12T06:54:14.347Z,63.66
2022-09-12T06:56:42.637Z,63.97
2022-09-12T06:59:11.030Z,63.22
2022-09-12T07:01:42.478Z,63.79
2022-09-12T07:04:11.558Z,62.80
2022-09-12T07:06:41.309Z,61.60
2022-09-12T07:09:11.847Z,61.57
2022-09-12T07:11:41.460Z,61.87
2022-09-12T07:14:13.034Z,61.73
2022-09-12T07:16:42.828Z,61.46
2022-09-12T07:19:12.136Z,60.36
2022-09-12T07:21:41.710Z,60.25
2022-09-12T07:24:10.859Z,59.61
2022-09-12T07:26:40.574Z,59.18
2022-09-12T07:29:35.444Z,59.23
2022-09-12T07:32:01.626Z,58.12
2022-09-12T07:34:29.630Z,58.99
2022-09-12T07:36:57.938Z,58.72
2022-09-12T07:39:26.031Z,59.33
2022-09-12T07:41:54.676Z,60.06
2022-09-12T07:44:23.613Z,60.67
2022-09-12T07:46:52.350Z,59.89
2022-09-12T07:49:21.810Z,59.08
2022-09-12T07:51:49.814Z,59.59
2022-09-12T07:54:17.953Z,59.94
2022-09-12T07:56:46.069Z,60.53
2022-09-12T07:59:18.924Z,60.43
2022-09-12T08:01:58.246Z,58.38
2022-09-12T08:04:27.736Z,57.07
2022-09-12T08:06:55.718Z,56.03
2022-09-12T08:09:23.773Z,55.91
2022-09-12T08:11:51.766Z,55.59
2022-09-12T08:14:19.749Z,54.71
2022-09-12T08:16:48.205Z,54.70
2022-09-12T08:19:16.238Z,53.40
2022-09-12T08:21:45.679Z,54.15
2022-09-12T08:24:13.889Z,53.68
2022-09-12T08:26:42.542Z,53.91
2022-09-12T08:29:10.500Z,53.66
2022-09-12T08:31:38.525Z,53.53
2022-09-12T08:34:07.189Z,54.04
2022-09-12T08:36:35.685Z,54.17
2022-09-12T08:39:07.315Z,54.46
2022-09-12T08:41:39.123Z,54.20
2022-09-12T08:44:23.967Z,53.82
2022-09-12T08:47:06.970Z,52.34
2022-09-12T08:49:39.539Z,51.12
2022-09-12T08:52:14.095Z,51.64
2022-09-12T08:54:45.500Z,51.25
2022-09-12T08:57:16.259Z,52.26
2022-09-12T08:59:46.058Z,51.36
2022-09-12T09:02:44.005Z,51.65
2022-09-12T09:05:20.397Z,52.88
2022-09-12T09:08:16.474Z,52.59
2022-09-12T09:10:52.621Z,52.20
2022-09-12T09:13:51.700Z,52.44
2022-09-12T09:16:27.149Z,51.48
2022-09-12T09:18:58.459Z,50.99
2022-09-12T09:21:31.755Z,50.98
2022-09-12T09:24:05.225Z,50.25
2022-09-12T09:26:44.898Z,49.83
2022-09-12T09:29:18.724Z,49.92
2022-09-12T09:31:49.115Z,49.91
2022-09-12T09:34:21.605Z,49.41
2022-09-12T09:36:52.258Z,49.55
2022-09-12T09:39:37.438Z,49.08
2022-09-12T09:42:26.160Z,48.77
2022-09-12T09:44:57.183Z,49.15
2022-09-12T09:47:25.213Z,49.63
2022-09-12T09:49:53.416Z,49.54
2022-09-12T09:52:27.584Z,49.32
2022-09-12T09:54:58.814Z,48.91
2022-09-12T09:57:47.965Z,48.09
2022-09-12T10:00:25.865Z,48.13
2022-09-12T10:03:23.142Z,46.89
2022-09-12T10:05:53.157Z,47.87
2022-09-12T10:08:22.516Z,48.81
2022-09-12T10:10:59.022Z,48.96
2022-09-12T10:13:35.484Z,48.51
2022-09-12T10:16:06.615Z,48.79
2022-09-12T10:18:37.036Z,48.70
2022-09-12T10:21:16.012Z,48.60
2022-09-12T10:23:44.943Z,48.97
2022-09-12T10:26:16.231Z,50.01
2022-09-12T10:28:48.034Z,50.62
2022-09-12T10:31:29.579Z,50.74
2022-09-12T10:34:00.000Z,50.72
2022-09-12T10:36:38.120Z,50.64
2022-09-12T10:39:08.040Z,50.94
2022-09-12T10:41:38.000Z,50.46
2022-09-12T10:44:17.318Z,50.55
2022-09-12T10:46:45.753Z,50.29
2022-09-12T10:49:21.139Z,49.48
2022-09-12T10:51:49.751Z,49.53
2022-09-12T10:54:19.631Z,48.83
2022-09-12T10:57:02.692Z,48.98
2022-09-12T10:59:50.511Z,49.55
2022-09-12T11:02:29.709Z,48.97
2022-09-12T11:05:07.216Z,48.95
2022-09-12T11:07:43.131Z,49.16
2022-09-12T11:10:23.614Z,49.46
2022-09-12T11:13:00.685Z,49.08
2022-09-12T11:15:47.753Z,48.00
2022-09-12T11:18:28.648Z,47.41
2022-09-12T11:21:10.618Z,47.65
2022-09-12T11:24:16.834Z,48.10
2022-09-12T11:27:01.087Z,48.04
2022-09-12T11:29:43.224Z,47.98
2022-09-12T11:32:49.118Z,48.29
2022-09-12T11:35:25.910Z,48.39
2022-09-12T11:38:08.298Z,48.83
2022-09-12T11:40:44.320Z,48.95
2022-09-12T11:43:30.969Z,49.62
2022-09-12T11:46:05.592Z,48.71
2022-09-12T11:48:43.975Z,47.52
2022-09-12T11:51:20.032Z,47.03
2022-09-12T11:54:00.022Z,46.75
2022-09-12T11:56:28.069Z,47.37
2022-09-12T11:59:04.148Z,47.59
2022-09-12T12:01:46.357Z,48.92
2022-09-12T12:04:21.915Z,48.17
2022-09-12T12:06:55.119Z,47.88
2022-09-12T12:09:23.677Z,48.62
2022-09-12T12:11:57.031Z,48.66
2022-09-12T12:14:29.604Z,48.71
2022-09-12T12:16:58.745Z,49.21
2022-09-12T12:19:34.916Z,48.10
2022-09-12T12:22:17.707Z,47.34
2022-09-12T12:25:28.847Z,47.81
2022-09-12T12:28:01.778Z,47.30
2022-09-12T12:31:03.945Z,46.65
2022-09-12T12:34:10.610Z,45.24
2022-09-12T12:36:43.060Z,45.19
2022-09-12T12:39:44.326Z,43.27
2022-09-12T12:42:32.429Z,41.58
2022-09-12T12:45:01.243Z,40.35
2022-09-12T12:47:34.175Z,40.04
2022-09-12T12:50:05.489Z,40.40
2022-09-12T12:52:48.266Z,42.38
2022-09-12T12:55:19.908Z,43.34
2022-09-12T12:57:50.923Z,42.56
2022-09-12T13:00:33.804Z,43.28
2022-09-12T13:03:08.026Z,43.06
2022-09-12T13:05:42.722Z,43.17
2022-09-12T13:08:28.886Z,43.40
2022-09-12T13:11:01.046Z,44.41
2022-09-12T13:13:35.360Z,44.65
2022-09-12T13:16:03.874Z,45.04
2022-09-12T13:18:42.239Z,45.24
2022-09-12T13:21:13.986Z,44.97
2022-09-12T13:23:44.438Z,44.37
2022-09-12T13:26:14.045Z,44.04
2022-09-12T13:28:42.130Z,44.11
2022-09-12T13:31:19.154Z,43.89
2022-09-12T13:33:50.376Z,44.01
2022-09-12T13:36:55.010Z,42.76
2022-09-12T13:39:27.620Z,43.07
2022-09-12T13:42:18.195Z,44.14
2022-09-12T13:44:49.709Z,43.47
2022-09-12T13:47:24.967Z,43.14
2022-09-12T13:49:53.499Z,42.40
2022-09-12T13:52:24.357Z,42.24
2022-09-12T13:54:58.220Z,43.04
2022-09-12T13:57:31.880Z,43.13
2022-09-12T14:00:02.103Z,43.37
2022-09-12T14:02:37.927Z,43.83
2022-09-12T14:05:13.690Z,44.05
2022-09-12T14:07:55.237Z,44.00
2022-09-12T14:10:30.289Z,43.16
2022-09-12T14:12:59.497Z,43.10
2022-09-12T14:15:31.460Z,43.16
2022-09-12T14:18:01.998Z,42.69
2022-09-12T14:20:32.839Z,43.12
2022-09-12T14:23:04.130Z,42.02
2022-09-12T14:25:39.143Z,41.50
2022-09-12T14:28:07.709Z,40.80
2022-09-12T14:30:37.404Z,39.69
2022-09-12T14:33:17.941Z,38.91
2022-09-12T14:35:48.410Z,37.58
2022-09-12T14:38:25.766Z,37.16
2022-09-12T14:41:04.179Z,36.49
2022-09-12T14:43:34.958Z,36.38
2022-09-12T14:46:06.130Z,36.48
2022-09-12T14:48:37.529Z,35.92
2022-09-12T14:51:07.335Z,35.89
2022-09-12T14:53:37.445Z,35.22
2022-09-12T14:56:11.262Z,35.27
2022-09-12T14:58:40.529Z,35.08
2022-09-12T15:01:26.955Z,34.98
2022-09-12T15:03:57.413Z,35.13
2022-09-12T15:06:29.427Z,35.09
2022-09-12T15:09:00.648Z,35.08
2022-09-12T15:11:30.444Z,35.66
2022-09-12T15:13:58.558Z,35.24
2022-09-12T15:16:26.705Z,35.29
2022-09-12T15:18:54.755Z,35.31
2022-09-12T15:21:22.816Z,35.97
2022-09-12T15:23:52.220Z,36.48
2022-09-12T15:26:21.840Z,36.69
2022-09-12T15:28:52.192Z,36.93
2022-09-12T15:31:25.209Z,35.92
2022-09-12T15:33:53.894Z,35.58
2022-09-12T15:36:24.234Z,35.78
2022-09-12T15:38:53.163Z,35.92
2022-09-12T15:41:24.143Z,35.89
2022-09-12T15:43:53.997Z,36.02
2022-09-12T15:46:26.029Z,36.17
2022-09-12T15:48:54.737Z,36.39
2022-09-12T15:51:23.506Z,36.89
2022-09-12T15:53:52.638Z,37.18
2022-09-12T15:56:22.249Z,37.37
2022-09-12T15:58:58.655Z,37.91
2022-09-12T16:01:30.161Z,38.29
2022-09-12T16:03:58.747Z,38.10
2022-09-12T16:06:27.908Z,37.94
2022-09-12T16:08:57.195Z,38.10
2022-09-12T16:11:27.304Z,38.08
2022-09-12T16:13:56.769Z,38.22
2022-09-12T16:16:26.168Z,38.37
2022-09-12T16:18:55.781Z,38.81
2022-09-12T16:21:24.077Z,38.83
2022-09-12T16:23:52.183Z,38.97
2022-09-12T16:26:20.264Z,38.87
2022-09-12T16:28:48.652Z,39.42
2022-09-12T16:31:19.681Z,39.36
2022-09-12T16:33:47.872Z,39.52
2022-09-12T16:36:19.556Z,39.86
2022-09-12T16:38:49.469Z,39.96
2022-09-12T16:41:19.559Z,40.12
2022-09-12T16:43:47.720Z,40.29
2022-09-12T16:46:17.744Z,40.53
2022-09-12T16:48:52.108Z,40.77
2022-09-12T16:51:23.666Z,40.77
2022-09-12T16:53:52.150Z,41.12
2022-09-12T16:56:21.359Z,41.09
2022-09-12T16:58:49.964Z,41.64
2022-09-12T17:01:20.404Z,41.83
2022-09-12T17:03:49.202Z,42.03
2022-09-12T17:06:20.090Z,42.15
2022-09-12T17:08:51.552Z,42.29
2022-09-12T17:11:21.596Z,42.45
2022-09-12T17:14:07.290Z,42.72
2022-09-12T17:16:37.737Z,43.05
2022-09-12T17:19:06.724Z,42.99
2022-09-12T17:21:35.589Z,43.35
2022-09-12T17:24:05.899Z,43.59
2022-09-12T17:26:34.312Z,43.62
2022-09-12T17:29:03.192Z,43.82
2022-09-12T17:31:32.251Z,43.71
2022-09-12T17:34:01.420Z,43.62
2022-09-12T17:36:31.981Z,43.96
2022-09-12T17:39:00.804Z,43.89
2022-09-12T17:41:32.413Z,43.68
2022-09-12T17:44:02.719Z,43.48
2022-09-12T17:46:35.135Z,43.30
2022-09-12T17:49:05.284Z,43.20
2022-09-12T17:51:33.421Z,43.23
2022-09-12T17:54:03.611Z,43.20
2022-09-12T17:56:34.331Z,43.23
2022-09-12T17:59:03.237Z,43.25
2022-09-12T18:01:49.060Z,43.51
2022-09-12T18:04:18.115Z,43.88
2022-09-12T18:06:48.786Z,43.67
2022-09-12T18:09:19.448Z,44.00
2022-09-12T18:11:50.012Z,44.35
2022-09-12T18:14:18.625Z,44.87
2022-09-12T18:16:47.275Z,44.76
2022-09-12T18:19:16.250Z,44.89
2022-09-12T18:21:44.659Z,44.92
2022-09-12T18:24:12.804Z,45.18
2022-09-12T18:26:42.655Z,45.20
2022-09-12T18:29:12.526Z,45.32
2022-09-12T18:31:40.896Z,45.73
2022-09-12T18:34:12.738Z,45.90
2022-09-12T18:36:41.352Z,45.98
2022-09-12T18:39:09.508Z,45.85
2022-09-12T18:41:38.171Z,46.28
2022-09-12T18:44:06.383Z,46.53
2022-09-12T18:46:36.348Z,46.46
2022-09-12T18:49:05.638Z,46.50
2022-09-12T18:51:36.038Z,46.79
2022-09-12T18:54:06.526Z,46.91
2022-09-12T18:56:37.729Z,47.03
2022-09-12T18:59:07.605Z,47.46
2022-09-12T19:01:38.828Z,47.55
2022-09-12T19:04:07.969Z,47.71
2022-09-12T19:06:38.858Z,47.51
2022-09-12T19:09:09.071Z,47.81
2022-09-12T19:11:38.749Z,47.44
2022-09-12T19:14:07.649Z,47.90
2022-09-12T19:16:37.254Z,47.83
2022-09-12T19:19:06.161Z,47.83
2022-09-12T19:21:36.861Z,47.65
2022-09-12T19:24:07.228Z,48.01
2022-09-12T19:26:35.855Z,48.20
2022-09-12T19:29:05.161Z,48.34
2022-09-12T19:31:34.104Z,48.34
2022-09-12T19:34:06.282Z,48.77
2022-09-12T19:36:50.927Z,48.78
2022-09-12T19:39:20.612Z,48.73
2022-09-12T19:41:49.290Z,48.54
2022-09-12T19:44:19.260Z,48.66
2022-09-12T19:46:47.478Z,48.73
2022-09-12T19:49:17.029Z,48.53
2022-09-12T19:51:45.072Z,48.54
2022-09-12T19:54:13.663Z,48.63
2022-09-12T19:56:42.342Z,48.07
2022-09-12T19:59:10.360Z,48.00
2022-09-12T20:01:38.748Z,47.57
2022-09-12T20:04:08.016Z,47.73
2022-09-12T20:06:37.535Z,47.80
2022-09-12T20:09:05.691Z,47.49
2022-09-12T20:11:34.062Z,47.67
2022-09-12T20:14:02.269Z,47.65
2022-09-12T20:16:31.077Z,47.97
2022-09-12T20:19:00.683Z,47.82
2022-09-12T20:21:33.028Z,48.05
2022-09-12T20:24:05.026Z,47.75
2022-09-12T20:26:33.615Z,47.39
2022-09-12T20:29:01.957Z,47.21
2022-09-12T20:31:30.340Z,47.49
2022-09-12T20:33:58.617Z,48.27
2022-09-12T20:36:27.402Z,49.16
2022-09-12T20:38:57.872Z,48.86
2022-09-12T20:41:29.687Z,49.22
2022-09-12T20:43:58.350Z,49.52
2022-09-12T20:46:28.266Z,49.42
2022-09-12T20:48:56.582Z,49.64
2022-09-12T20:51:26.696Z,49.75
2022-09-12T20:53:55.505Z,49.78
2022-09-12T20:56:24.214Z,49.53
2022-09-12T20:58:53.715Z,49.57
2022-09-12T21:01:22.070Z,49.69
2022-09-12T21:03:50.295Z,50.07
2022-09-12T21:06:18.743Z,49.78
2022-09-12T21:08:47.742Z,49.69
2022-09-12T21:11:16.442Z,50.96
2022-09-12T21:13:44.451Z,50.58
2022-09-12T21:16:15.752Z,52.08
2022-09-12T21:18:44.567Z,51.72
2022-09-12T21:21:16.509Z,52.75
2022-09-12T21:23:45.484Z,54.15
2022-09-12T21:26:13.792Z,53.13
2022-09-12T21:28:41.778Z,53.39
2022-09-12T21:31:10.116Z,53.62
2022-09-12T21:33:40.033Z,53.95
2022-09-12T21:36:09.547Z,55.34
2022-09-12T21:38:37.681Z,56.63
2022-09-12T21:41:07.632Z,56.69
2022-09-12T21:43:36.019Z,58.03
2022-09-12T21:46:05.245Z,57.33
2022-09-12T21:48:33.879Z,58.14
2022-09-12T21:51:03.956Z,57.74
2022-09-12T21:53:32.251Z,57.92
2022-09-12T21:56:04.979Z,58.18
2022-09-12T21:58:33.137Z,57.80
2022-09-12T22:01:01.604Z,58.77
2022-09-12T22:03:30.608Z,60.52
2022-09-12T22:05:59.500Z,59.26
2022-09-12T22:08:30.006Z,59.75
2022-09-12T22:11:02.206Z,61.85
2022-09-12T22:13:31.509Z,62.50
2022-09-12T22:16:00.669Z,62.02
2022-09-12T22:18:28.794Z,62.13
2022-09-12T22:21:01.073Z,62.37
2022-09-12T22:23:48.350Z,61.41
2022-09-12T22:26:17.070Z,62.32
2022-09-12T22:28:45.523Z,62.99
2022-09-12T22:31:14.659Z,63.63
2022-09-12T22:33:42.844Z,64.11
2022-09-12T22:36:11.940Z,63.13
2022-09-12T22:38:41.659Z,62.71
2022-09-12T22:41:13.123Z,62.98
2022-09-12T22:43:41.228Z,63.60
2022-09-12T22:46:10.486Z,64.29
2022-09-12T22:48:39.532Z,64.80
2022-09-12T22:51:08.339Z,65.60
2022-09-12T22:53:36.893Z,65.71
2022-09-12T22:56:07.093Z,66.54
2022-09-12T22:58:37.297Z,66.00
2022-09-12T23:01:06.369Z,66.68
2022-09-12T23:03:35.242Z,66.92
2022-09-12T23:06:03.790Z,66.37
2022-09-12T23:08:32.100Z,67.23
2022-09-12T23:11:03.608Z,67.84
2022-09-12T23:13:33.094Z,66.84
2022-09-12T23:16:02.214Z,68.61
2022-09-12T23:18:31.043Z,68.32
2022-09-12T23:21:01.022Z,68.52
2022-09-12T23:23:29.977Z,67.86
2022-09-12T23:26:06.300Z,69.65
2022-09-12T23:28:36.613Z,68.50
2022-09-12T23:31:05.067Z,69.99
2022-09-12T23:33:33.914Z,68.73
2022-09-12T23:36:02.912Z,67.54
2022-09-12T23:38:31.396Z,68.54
2022-09-12T23:41:00.469Z,68.73
2022-09-12T23:43:29.015Z,69.10
2022-09-12T23:45:59.209Z,69.39
2022-09-12T23:48:27.761Z,69.77
2022-09-12T23:50:55.956Z,69.45
2022-09-12T23:53:24.072Z,69.31
2022-09-12T23:55:52.336Z,70.71
2022-09-12T23:58:21.621Z,71.01
